createdAt,value
2022-08-01T00:00:14.121Z,100329.06
2022-08-01T00:02:43.509Z,100321.19
2022-08-01T00:05:13.166Z,100318.69
2022-08-01T00:07:57.153Z,100321.47
2022-08-01T00:10:26.012Z,100281.47
2022-08-01T00:12:54.859Z,100325.56
2022-08-01T00:15:23.842Z,100322.97
2022-08-01T00:17:52.668Z,100321.03
2022-08-01T00:20:21.575Z,100314.78
2022-08-01T00:22:50.168Z,100311.25
2022-08-01T00:25:20.751Z,100262.41
2022-08-01T00:28:04.339Z,100300.34
2022-08-01T00:30:33.470Z,100309.13
2022-08-01T00:33:02.559Z,100303.09
2022-08-01T00:35:31.581Z,100311.91
2022-08-01T00:38:00.369Z,100311.53
2022-08-01T00:40:30.491Z,100291.03
2022-08-01T00:42:59.589Z,100310.22
2022-08-01T00:45:34.565Z,100271.31
2022-08-01T00:48:03.236Z,100316.91
2022-08-01T00:50:45.122Z,100297.63
2022-08-01T00:53:18.591Z,100319.34
2022-08-01T00:56:04.543Z,100325.69
2022-08-01T00:58:38.038Z,100324.19
2022-08-01T01:01:14.290Z,100316.00
2022-08-01T01:03:58.701Z,100264.06
2022-08-01T01:06:46.634Z,100321.28
2022-08-01T01:09:33.698Z,100318.78
2022-08-01T01:12:24.481Z,100318.88
2022-08-01T01:15:03.742Z,100244.09
2022-08-01T01:17:51.445Z,100328.09
2022-08-01T01:20:25.751Z,100300.78
2022-08-01T01:23:17.973Z,100302.88
2022-08-01T01:26:19.822Z,100326.25
2022-08-01T01:29:13.465Z,100324.72
2022-08-01T01:31:50.014Z,100325.28
2022-08-01T01:34:26.828Z,100319.91
2022-08-01T01:37:02.516Z,100309.09
2022-08-01T01:39:33.959Z,100282.38
2022-08-01T01:42:07.294Z,100316.56
2022-08-01T01:44:45.688Z,100327.00
2022-08-01T01:47:18.475Z,100316.25
2022-08-01T01:50:06.591Z,100323.47
2022-08-01T01:52:39.006Z,100318.84
2022-08-01T01:55:13.962Z,100321.63
2022-08-01T01:57:48.551Z,100311.19
2022-08-01T02:00:21.448Z,100324.72
2022-08-01T02:02:54.245Z,100297.91
2022-08-01T02:05:24.216Z,100307.19
2022-08-01T02:07:59.686Z,100324.13
2022-08-01T02:10:30.654Z,100321.28
2022-08-01T02:13:04.239Z,100326.25
2022-08-01T02:15:39.296Z,100329.88
2022-08-01T02:18:28.176Z,100321.06
2022-08-01T02:21:00.043Z,100329.19
2022-08-01T02:23:34.766Z,100323.94
2022-08-01T02:26:11.683Z,100332.28
2022-08-01T02:28:49.699Z,100331.72
2022-08-01T02:31:23.673Z,100330.88
2022-08-01T02:34:01.176Z,100294.44
2022-08-01T02:36:35.200Z,100326.84
2022-08-01T02:39:10.715Z,100319.38
2022-08-01T02:41:45.564Z,100322.81
2022-08-01T02:44:25.843Z,100322.25
2022-08-01T02:47:03.551Z,100325.50
2022-08-01T02:49:37.538Z,100328.00
2022-08-01T02:52:10.727Z,100322.53
2022-08-01T02:54:41.727Z,100275.06
2022-08-01T02:57:13.846Z,100305.34
2022-08-01T02:59:45.077Z,100276.88
2022-08-01T03:02:18.818Z,100302.69
2022-08-01T03:04:52.704Z,100324.16
2022-08-01T03:07:34.424Z,100328.69
2022-08-01T03:10:05.607Z,100325.00
2022-08-01T03:12:40.226Z,100332.00
2022-08-01T03:15:12.712Z,100336.53
2022-08-01T03:17:47.024Z,100293.59
2022-08-01T03:20:18.773Z,100293.69
2022-08-01T03:22:50.589Z,100334.13
2022-08-01T03:25:21.027Z,100278.50
2022-08-01T03:27:57.413Z,100347.56
2022-08-01T03:30:28.704Z,100346.78
2022-08-01T03:32:59.438Z,100345.16
2022-08-01T03:35:35.759Z,100334.25
2022-08-01T03:38:16.630Z,100348.22
2022-08-01T03:40:51.792Z,100311.22
2022-08-01T03:43:29.134Z,100341.91
2022-08-01T03:46:04.368Z,100351.78
2022-08-01T03:48:39.118Z,100346.59
2022-08-01T03:51:11.156Z,100353.13
2022-08-01T03:53:43.397Z,100350.06
2022-08-01T03:56:15.037Z,100347.94
2022-08-01T03:58:50.134Z,100336.59
2022-08-01T04:01:20.660Z,100355.38
2022-08-01T04:03:51.446Z,100354.00
2022-08-01T04:06:20.512Z,100358.75
2022-08-01T04:08:56.677Z,100367.09
2022-08-01T04:11:28.328Z,100343.97
2022-08-01T04:13:58.618Z,100364.09
2022-08-01T04:16:27.685Z,100277.56
2022-08-01T04:18:58.078Z,100364.88
2022-08-01T04:21:31.777Z,100366.16
2022-08-01T04:24:06.120Z,100366.22
2022-08-01T04:26:38.419Z,100371.50
2022-08-01T04:29:10.369Z,100310.53
2022-08-01T04:31:44.242Z,100375.00
2022-08-01T04:34:19.990Z,100378.16
2022-08-01T04:36:50.734Z,100380.75
2022-08-01T04:39:22.355Z,100376.91
2022-08-01T04:41:53.532Z,100378.25
2022-08-01T04:44:22.843Z,100368.09
2022-08-01T04:46:55.585Z,100384.34
2022-08-01T04:49:26.137Z,100347.72
2022-08-01T04:51:58.741Z,100358.81
2022-08-01T04:54:28.188Z,100393.22
2022-08-01T04:57:01.111Z,100328.25
2022-08-01T04:59:42.451Z,100391.78
2022-08-01T05:02:14.252Z,100393.22
2022-08-01T05:04:45.576Z,100397.53
2022-08-01T05:07:16.915Z,100315.38
2022-08-01T05:09:47.114Z,100393.41
2022-08-01T05:12:16.929Z,100396.00
2022-08-01T05:14:46.985Z,100390.25
2022-08-01T05:17:15.838Z,100345.66
2022-08-01T05:19:46.319Z,100377.13
2022-08-01T05:22:15.565Z,100213.38
2022-08-01T05:24:44.713Z,100400.22
2022-08-01T05:27:15.606Z,100404.28
2022-08-01T05:29:45.324Z,100377.97
2022-08-01T05:32:14.341Z,100401.63
2022-08-01T05:34:43.282Z,100401.53
2022-08-01T05:37:13.471Z,100406.34
2022-08-01T05:39:42.330Z,100409.06
2022-08-01T05:42:11.199Z,100399.75
2022-08-01T05:44:39.769Z,100401.28
2022-08-01T05:47:08.728Z,100402.47
2022-08-01T05:49:37.540Z,100413.09
2022-08-01T05:52:06.899Z,100400.41
2022-08-01T05:54:37.172Z,100400.41
2022-08-01T05:57:06.956Z,100383.34
2022-08-01T05:59:35.911Z,100404.25
2022-08-01T06:02:05.114Z,100402.69
2022-08-01T06:04:33.977Z,100401.84
2022-08-01T06:07:02.736Z,100404.50
2022-08-01T06:09:32.001Z,100403.28
2022-08-01T06:12:02.091Z,100406.34
2022-08-01T06:14:31.101Z,100398.19
2022-08-01T06:17:00.111Z,100408.63
2022-08-01T06:19:29.109Z,100405.63
2022-08-01T06:21:58.071Z,100407.47
2022-08-01T06:24:27.782Z,100413.75
2022-08-01T06:26:57.624Z,100413.16
2022-08-01T06:29:39.582Z,100364.72
2022-08-01T06:32:26.676Z,100421.91
2022-08-01T06:34:57.173Z,100393.34
2022-08-01T06:37:26.379Z,100424.31
2022-08-01T06:39:55.452Z,100420.94
2022-08-01T06:42:24.807Z,100424.03
2022-08-01T06:44:54.866Z,100411.13
2022-08-01T06:47:26.983Z,100411.38
2022-08-01T06:49:56.257Z,100436.22
2022-08-01T06:52:25.028Z,100433.03
2022-08-01T06:54:55.029Z,100439.91
2022-08-01T06:57:24.030Z,100436.38
2022-08-01T06:59:54.857Z,100439.19
2022-08-01T07:02:24.405Z,100436.72
2022-08-01T07:04:53.309Z,100443.47
2022-08-01T07:07:22.359Z,100433.97
2022-08-01T07:09:50.988Z,100442.34
2022-08-01T07:12:21.278Z,100442.41
2022-08-01T07:14:50.143Z,100445.56
2022-08-01T07:17:21.581Z,100388.44
2022-08-01T07:19:50.593Z,100373.56
2022-08-01T07:22:23.066Z,100441.91
2022-08-01T07:24:54.423Z,100419.91
2022-08-01T07:27:25.551Z,100437.13
2022-08-01T07:29:55.084Z,100442.66
2022-08-01T07:32:26.570Z,100448.38
2022-08-01T07:34:55.517Z,100442.66
2022-08-01T07:37:48.409Z,100452.31
2022-08-01T07:40:14.391Z,100356.53
2022-08-01T07:42:46.136Z,100450.97
2022-08-01T07:45:15.604Z,100453.75
2022-08-01T07:47:46.538Z,100450.03
2022-08-01T07:50:15.915Z,100441.78
2022-08-01T07:52:45.085Z,100445.38
2022-08-01T07:55:16.605Z,100412.38
2022-08-01T07:57:45.680Z,100438.94
2022-08-01T08:00:16.215Z,100449.13
2022-08-01T08:02:46.773Z,100407.78
2022-08-01T08:05:15.646Z,100449.13
2022-08-01T08:08:04.707Z,100437.69
2022-08-01T08:10:33.360Z,100448.34
2022-08-01T08:13:02.695Z,100405.84
2022-08-01T08:15:31.888Z,100441.06
2022-08-01T08:18:05.177Z,100441.41
2022-08-01T08:20:33.912Z,100437.22
2022-08-01T08:23:41.547Z,100433.72
2022-08-01T08:26:11.988Z,100445.47
2022-08-01T08:28:40.951Z,100440.56
2022-08-01T08:31:24.916Z,100422.25
2022-08-01T08:33:59.872Z,100430.84
2022-08-01T08:36:31.199Z,100449.00
2022-08-01T08:39:01.802Z,100442.09
2022-08-01T08:41:37.586Z,100430.75
2022-08-01T08:44:10.429Z,100435.78
2022-08-01T08:46:45.357Z,100426.16
2022-08-01T08:49:20.903Z,100450.56
2022-08-01T08:51:52.778Z,100451.19
2022-08-01T08:54:28.933Z,100441.25
2022-08-01T08:57:02.360Z,100451.50
2022-08-01T08:59:31.669Z,100447.16
2022-08-01T09:02:01.116Z,100449.03
2022-08-01T09:04:32.152Z,100461.31
2022-08-01T09:07:01.246Z,100458.84
2022-08-01T09:09:30.077Z,100451.56
2022-08-01T09:11:59.512Z,100429.56
2022-08-01T09:14:31.497Z,100465.41
2022-08-01T09:17:07.778Z,100469.16
2022-08-01T09:19:43.588Z,100473.69
2022-08-01T09:22:15.088Z,100461.97
2022-08-01T09:24:44.573Z,100437.28
2022-08-01T09:27:25.061Z,100467.41
2022-08-01T09:30:01.380Z,100463.38
2022-08-01T09:32:35.901Z,100468.31
2022-08-01T09:35:31.299Z,100469.38
2022-08-01T09:38:18.761Z,100462.88
2022-08-01T09:40:54.050Z,100467.09
2022-08-01T09:43:25.224Z,100474.03
2022-08-01T09:45:57.986Z,100440.75
2022-08-01T09:48:29.471Z,100470.59
2022-08-01T09:51:07.126Z,100447.22
2022-08-01T09:53:52.143Z,100481.88
2022-08-01T09:56:23.361Z,100490.84
2022-08-01T09:58:59.923Z,100481.19
2022-08-01T10:01:36.960Z,100487.81
2022-08-01T10:04:15.223Z,100490.94
2022-08-01T10:06:50.608Z,100479.41
2022-08-01T10:09:40.646Z,100481.94
2022-08-01T10:12:15.974Z,100486.50
2022-08-01T10:14:50.340Z,100463.56
2022-08-01T10:17:22.581Z,100484.19
2022-08-01T10:19:55.699Z,100489.22
2022-08-01T10:22:32.668Z,100464.00
2022-08-01T10:25:08.602Z,100475.22
2022-08-01T10:27:40.196Z,100484.09
2022-08-01T10:30:19.496Z,100477.53
2022-08-01T10:32:55.123Z,100470.63
2022-08-01T10:35:46.858Z,100472.44
2022-08-01T10:38:14.927Z,100497.44
2022-08-01T10:40:45.277Z,100508.13
2022-08-01T10:43:21.503Z,100491.47
2022-08-01T10:45:52.941Z,100522.34
2022-08-01T10:48:31.929Z,100520.31
2022-08-01T10:51:17.777Z,100500.16
2022-08-01T10:53:56.825Z,100510.31
2022-08-01T10:56:27.607Z,100476.50
2022-08-01T10:59:06.771Z,100538.47
2022-08-01T11:01:45.142Z,100484.94
2022-08-01T11:04:18.095Z,100552.09
2022-08-01T11:07:06.900Z,100566.69
2022-08-01T11:09:51.476Z,100568.72
2022-08-01T11:12:24.690Z,100529.81
2022-08-01T11:15:30.311Z,100566.59
2022-08-01T11:18:04.464Z,100571.69
2022-08-01T11:20:36.077Z,100572.44
2022-08-01T11:23:36.105Z,100582.06
2022-08-01T11:26:29.664Z,100580.03
2022-08-01T11:29:20.913Z,100578.16
2022-08-01T11:31:52.914Z,100582.88
2022-08-01T11:34:22.440Z,100586.94
2022-08-01T11:36:59.929Z,100583.97
2022-08-01T11:39:29.503Z,100548.47
2022-08-01T11:42:21.158Z,100588.03
2022-08-01T11:44:53.786Z,100584.88
2022-08-01T11:47:46.723Z,100550.00
2022-08-01T11:50:36.321Z,100585.59
2022-08-01T11:53:08.875Z,100588.50
2022-08-01T11:55:51.257Z,100568.34
2022-08-01T11:58:29.406Z,100590.69
2022-08-01T12:01:01.170Z,100591.53
2022-08-01T12:03:34.173Z,100542.69
2022-08-01T12:06:04.381Z,100585.34
2022-08-01T12:08:37.447Z,100548.72
2022-08-01T12:11:07.530Z,100594.16
2022-08-01T12:14:00.401Z,100583.66
2022-08-01T12:16:41.134Z,100582.63
2022-08-01T12:19:11.501Z,100585.63
2022-08-01T12:21:41.301Z,100574.69
2022-08-01T12:24:10.577Z,100600.22
2022-08-01T12:26:43.663Z,100596.38
2022-08-01T12:29:33.309Z,100585.47
2022-08-01T12:32:02.876Z,100581.44
2022-08-01T12:34:35.138Z,100585.69
2022-08-01T12:37:05.487Z,100590.56
2022-08-01T12:39:40.249Z,100572.28
2022-08-01T12:42:11.701Z,100597.38
2022-08-01T12:44:44.142Z,100573.41
2022-08-01T12:47:15.477Z,100596.94
2022-08-01T12:49:47.032Z,100554.56
2022-08-01T12:52:18.428Z,100591.94
2022-08-01T12:55:06.511Z,100556.38
2022-08-01T12:57:42.135Z,100560.78
2022-08-01T13:00:20.658Z,100582.38
2022-08-01T13:02:52.636Z,100526.97
2022-08-01T13:05:21.775Z,100584.63
2022-08-01T13:07:53.026Z,100565.50
2022-08-01T13:10:31.497Z,100563.94
2022-08-01T13:13:01.600Z,100583.25
2022-08-01T13:15:35.917Z,100560.69
2022-08-01T13:18:28.403Z,100586.50
2022-08-01T13:21:16.253Z,100578.88
2022-08-01T13:24:04.859Z,100592.66
2022-08-01T13:26:45.808Z,100587.13
2022-08-01T13:29:16.975Z,100587.06
2022-08-01T13:31:47.344Z,100568.19
2022-08-01T13:34:18.093Z,100592.41
2022-08-01T13:36:49.649Z,100586.53
2022-08-01T13:39:36.395Z,100592.44
2022-08-01T13:42:05.876Z,100597.06
2022-08-01T13:44:34.945Z,100598.88
2022-08-01T13:47:15.200Z,100595.44
2022-08-01T13:49:45.742Z,100595.38
2022-08-01T13:52:14.802Z,100591.25
2022-08-01T13:54:43.504Z,100597.78
2022-08-01T13:57:12.451Z,100601.31
2022-08-01T13:59:41.100Z,100598.75
2022-08-01T14:02:11.225Z,100603.19
2022-08-01T14:04:39.871Z,100610.94
2022-08-01T14:07:13.052Z,100602.81
2022-08-01T14:09:44.781Z,100592.63
2022-08-01T14:12:14.309Z,100606.22
2022-08-01T14:14:42.792Z,100608.03
2022-08-01T14:17:13.347Z,100575.59
2022-08-01T14:19:46.502Z,100605.34
2022-08-01T14:22:15.196Z,100610.66
2022-08-01T14:24:43.754Z,100627.47
2022-08-01T14:27:13.240Z,100564.19
2022-08-01T14:30:00.231Z,100612.16
2022-08-01T14:32:34.292Z,100607.41
2022-08-01T14:35:03.517Z,100576.50
2022-08-01T14:37:37.601Z,100616.03
2022-08-01T14:40:10.413Z,100618.59
2022-08-01T14:42:40.428Z,100589.69
2022-08-01T14:45:10.921Z,100584.28
2022-08-01T14:47:42.710Z,100610.78
2022-08-01T14:50:15.366Z,100590.13
2022-08-01T14:52:45.264Z,100618.81
2022-08-01T14:55:15.118Z,100623.56
2022-08-01T14:57:43.815Z,100622.38
2022-08-01T15:00:14.952Z,100590.88
2022-08-01T15:02:45.535Z,100617.53
2022-08-01T15:05:14.469Z,100592.19
2022-08-01T15:07:51.664Z,100619.66
2022-08-01T15:10:22.637Z,100633.28
2022-08-01T15:12:51.616Z,100629.38
2022-08-01T15:15:21.026Z,100630.16
2022-08-01T15:17:52.755Z,100631.25
2022-08-01T15:20:21.829Z,100645.28
2022-08-01T15:22:50.581Z,100606.50
2022-08-01T15:25:19.231Z,100629.78
2022-08-01T15:27:47.810Z,100599.47
2022-08-01T15:30:16.709Z,100624.19
2022-08-01T15:32:53.466Z,100638.78
2022-08-01T15:35:22.123Z,100616.47
2022-08-01T15:37:51.108Z,100632.22
2022-08-01T15:40:22.411Z,100642.69
2022-08-01T15:42:51.077Z,100633.59
2022-08-01T15:48:12.131Z,100647.41
2022-08-01T15:50:41.156Z,100644.06
2022-08-01T15:53:10.207Z,100642.84
2022-08-01T15:55:39.802Z,100653.78
2022-08-01T15:58:11.610Z,100647.25
2022-08-01T16:00:40.944Z,100645.28
2022-08-01T16:03:11.896Z,100644.06
2022-08-01T16:05:43.915Z,100645.41
2022-08-01T16:08:13.750Z,100652.56
2022-08-01T16:10:43.200Z,100644.06
2022-08-01T16:13:12.959Z,100646.16
2022-08-01T16:15:42.320Z,100621.75
2022-08-01T16:18:14.717Z,100650.34
2022-08-01T16:20:45.752Z,100645.41
2022-08-01T16:23:15.608Z,100653.16
2022-08-01T16:25:45.035Z,100656.25
2022-08-01T16:28:14.585Z,100653.16
2022-08-01T16:30:48.784Z,100650.78
2022-08-01T16:33:47.096Z,100607.09
2022-08-01T16:36:21.587Z,100650.50
2022-08-01T16:38:51.947Z,100606.25
2022-08-01T16:41:20.747Z,100639.06
2022-08-01T16:43:53.360Z,100641.09
2022-08-01T16:46:25.142Z,100647.63
2022-08-01T16:48:56.180Z,100651.75
2022-08-01T16:51:24.906Z,100639.19
2022-08-01T16:53:53.829Z,100641.56
2022-08-01T16:56:22.743Z,100636.50
2022-08-01T16:58:51.413Z,100631.97
2022-08-01T17:02:01.518Z,100625.31
2022-08-01T17:04:10.735Z,100584.19
2022-08-01T17:06:39.591Z,100605.88
2022-08-01T17:09:09.461Z,100631.25
2022-08-01T17:11:38.199Z,100603.53
2022-08-01T17:14:07.282Z,100653.06
2022-08-01T17:16:36.462Z,100629.69
2022-08-01T17:19:05.743Z,100638.25
2022-08-01T17:21:39.814Z,100490.88
2022-08-01T17:24:14.833Z,100636.56
2022-08-01T17:26:45.559Z,100644.56
2022-08-01T17:29:14.632Z,100640.50
2022-08-01T17:31:43.569Z,100430.53
2022-08-01T17:34:12.533Z,100646.25
2022-08-01T17:36:42.671Z,100647.09
2022-08-01T17:39:13.590Z,100657.31
2022-08-01T17:41:43.480Z,100629.31
2022-08-01T17:44:12.500Z,100645.19
2022-08-01T17:46:43.526Z,100651.78
2022-08-01T17:49:15.328Z,100644.59
2022-08-01T17:51:47.072Z,100490.25
2022-08-01T17:54:23.719Z,100650.31
2022-08-01T17:56:52.852Z,100644.16
2022-08-01T17:59:22.546Z,100656.81
2022-08-01T18:01:52.033Z,100657.38
2022-08-01T18:04:21.206Z,100655.03
2022-08-01T18:06:58.094Z,100544.44
2022-08-01T18:09:32.892Z,100662.91
2022-08-01T18:12:03.175Z,100658.13
2022-08-01T18:14:41.038Z,100657.31
2022-08-01T18:17:13.216Z,100658.28
2022-08-01T18:19:46.855Z,100660.59
2022-08-01T18:22:32.795Z,100664.88
2022-08-01T18:25:08.389Z,100664.69
2022-08-01T18:28:29.587Z,100507.25
2022-08-01T18:30:27.312Z,100660.50
2022-08-01T18:32:57.158Z,100666.88
2022-08-01T18:35:51.693Z,100662.91
2022-08-01T18:38:17.874Z,100519.72
2022-08-01T18:40:49.218Z,100675.50
2022-08-01T18:43:18.318Z,100678.28
2022-08-01T18:45:47.426Z,100676.38
2022-08-01T18:48:16.267Z,100682.38
2022-08-01T18:50:45.362Z,100689.31
2022-08-01T18:53:14.193Z,100525.09
2022-08-01T18:55:44.745Z,100684.78
2022-08-01T18:58:13.514Z,100704.09
2022-08-01T19:00:42.359Z,100709.03
2022-08-01T19:03:16.182Z,100706.63
2022-08-01T19:05:45.297Z,100715.06
2022-08-01T19:08:14.667Z,100718.84
2022-08-01T19:10:44.793Z,100723.84
2022-08-01T19:13:14.694Z,100721.91
2022-08-01T19:15:44.040Z,100728.56
2022-08-01T19:18:13.126Z,100735.91
2022-08-01T19:20:43.058Z,100737.50
2022-08-01T19:23:29.146Z,100751.72
2022-08-01T19:26:00.184Z,100755.81
2022-08-01T19:28:30.881Z,100739.91
2022-08-01T19:31:03.539Z,100762.53
2022-08-01T19:33:39.040Z,100758.00
2022-08-01T19:36:10.479Z,100740.56
2022-08-01T19:38:39.130Z,100773.31
2022-08-01T19:41:09.351Z,100713.13
2022-08-01T19:43:46.150Z,100716.22
2022-08-01T19:46:17.486Z,100658.31
2022-08-01T19:48:53.665Z,100775.66
2022-08-01T19:51:33.661Z,100777.66
2022-08-01T19:54:07.657Z,100770.72
2022-08-01T19:56:46.538Z,100779.75
2022-08-01T19:59:21.627Z,100771.09
2022-08-01T20:01:54.498Z,100768.13
2022-08-01T20:04:23.925Z,100782.16
2022-08-01T20:06:53.143Z,100647.72
2022-08-01T20:09:22.276Z,100748.25
2022-08-01T20:11:55.271Z,100793.25
2022-08-01T20:14:26.648Z,100760.78
2022-08-01T20:16:58.038Z,100587.38
2022-08-01T20:19:29.546Z,100787.56
2022-08-01T20:22:04.728Z,100790.25
2022-08-01T20:24:41.076Z,100785.19
2022-08-01T20:27:13.857Z,100796.50
2022-08-01T20:29:45.471Z,100744.03
2022-08-01T20:32:16.472Z,100787.91
2022-08-01T20:34:45.315Z,100581.75
2022-08-01T20:37:14.549Z,100789.41
2022-08-01T20:39:48.547Z,100748.66
2022-08-01T20:42:24.897Z,100581.84
2022-08-01T20:44:56.512Z,100406.66
2022-08-01T20:47:26.656Z,100748.34
2022-08-01T20:50:27.642Z,100743.97
2022-08-01T20:53:05.485Z,100747.81
2022-08-01T20:55:47.714Z,100748.38
2022-08-01T20:58:29.179Z,100794.53
2022-08-01T21:01:03.205Z,100768.25
2022-08-01T21:03:52.409Z,100716.78
2022-08-01T21:06:31.580Z,100812.81
2022-08-01T21:09:05.033Z,100805.94
2022-08-01T21:11:44.260Z,100751.56
2022-08-01T21:14:22.369Z,100802.13
2022-08-01T21:17:02.597Z,100809.47
2022-08-01T21:19:35.031Z,100806.97
2022-08-01T21:22:12.156Z,100771.69
2022-08-01T21:24:58.193Z,100769.38
2022-08-01T21:27:33.538Z,100811.63
2022-08-01T21:30:08.458Z,100785.09
2022-08-01T21:32:42.037Z,100815.91
2022-08-01T21:35:18.678Z,100814.31
2022-08-01T21:37:52.703Z,100785.16
2022-08-01T21:40:23.050Z,100776.41
2022-08-01T21:42:54.593Z,100821.94
2022-08-01T21:45:27.352Z,100751.84
2022-08-01T21:47:59.088Z,100641.88
2022-08-01T21:50:28.094Z,100824.38
2022-08-01T21:53:15.997Z,100821.84
2022-08-01T21:56:14.636Z,100804.84
2022-08-01T21:58:53.491Z,100825.66
2022-08-01T22:01:33.436Z,100832.00
2022-08-01T22:04:26.520Z,100808.81
2022-08-01T22:06:58.082Z,100841.19
2022-08-01T22:09:30.980Z,100847.50
2022-08-01T22:12:08.092Z,100812.03
2022-08-01T22:14:44.127Z,100841.53
2022-08-01T22:17:21.760Z,100847.00
2022-08-01T22:19:54.094Z,100849.78
2022-08-01T22:22:45.228Z,100840.94
2022-08-01T22:25:16.976Z,100847.34
2022-08-01T22:28:07.845Z,100852.75
2022-08-01T22:30:36.675Z,100852.91
2022-08-01T22:33:16.232Z,100857.44
2022-08-01T22:35:48.028Z,100754.00
2022-08-01T22:38:20.105Z,100819.47
2022-08-01T22:40:52.878Z,100826.53
2022-08-01T22:43:30.400Z,100859.75
2022-08-01T22:46:17.325Z,100825.97
2022-08-01T22:48:53.330Z,100692.69
2022-08-01T22:51:38.125Z,100800.78
2022-08-01T22:54:10.073Z,100835.53
2022-08-01T22:56:44.264Z,100862.16
2022-08-01T22:59:20.878Z,100811.72
2022-08-01T23:01:52.642Z,100848.84
2022-08-01T23:04:33.889Z,100872.53
2022-08-01T23:07:07.617Z,100861.72
2022-08-01T23:09:53.031Z,100856.72
2022-08-01T23:12:28.620Z,100849.19
2022-08-01T23:15:01.174Z,100846.50
2022-08-01T23:17:32.813Z,100850.06
2022-08-01T23:20:08.034Z,100874.25
2022-08-01T23:22:38.608Z,100882.28
2022-08-01T23:25:10.206Z,100878.81
2022-08-01T23:27:54.113Z,100719.41
2022-08-01T23:30:33.483Z,100888.81
2022-08-01T23:33:03.105Z,100886.34
2022-08-01T23:35:35.504Z,100886.69
2022-08-01T23:38:10.291Z,100889.84
2022-08-01T23:40:39.894Z,100895.50
2022-08-01T23:43:16.139Z,100884.34
2022-08-01T23:46:04.142Z,100887.56
2022-08-01T23:48:36.791Z,100892.50
2022-08-01T23:51:09.459Z,100892.84
2022-08-01T23:53:40.119Z,100837.53
2022-08-01T23:56:08.736Z,100884.72
2022-08-01T23:58:37.678Z,100882.53
